Hampton, VA (23661)

4:11 AM EDT on August 29, 2014 (GMT -0400)
NNFD Fire Station 1 | Change Station
CLOSE
Current Station
Personal Weather Station
Location: Newport News, VA
Elevation: 45 ft
Nearby Weather Stations

Elev 45 ft 36.98 °N, 76.43 °W | Updated 8 minutes ago

Overcast
Overcast
75.7 °F
Feels Like 76 °F
N
4.0
Wind Variable Wind from NE
Gusts 12.0 mph

Today
High -- | Low -- °F
--% Chance of Precip.
Yesterday
High -- | Low -- °F
Precip. -- in
6:33 AM 7:38 PM
Waxing Crescent, 13% visible
Pressure 30.09 in
Visibility 10.0 miles
Clouds Few 3600 ft
Scattered Clouds 7500 ft
Overcast 11000 ft
Heat Index 76 °F
Dew Point 70 °F
Humidity 83%
Rainfall 0.00 in
Snow Depth Not available.
UV 0 out of 12
Pollen 9.50 out of 12
Ozone Good
PM2.5 Good
Flu Activity Not available.
METAR KLFI 290758Z AUTO 09009KT 10SM FEW036 SCT075 OVC110 24/21 A3007 RMK AO2 SLP189 T02390212 $

More Conditions Fewer Conditions

Pressure 30.09 in
Visibility 10.0 miles
Clouds Few 3600 ft
Scattered Clouds 7500 ft
Overcast 11000 ft
Heat Index 76 °F
Dew Point 70 °F
Humidity 83%
Rainfall 0.00 in
Snow Depth Not available.
UV 0 out of 12
Pollen 9.50 out of 12
Ozone Good
PM2.5 Good
Flu Activity Not available.
METAR KLFI 290758Z AUTO 09009KT 10SM FEW036 SCT075 OVC110 24/21 A3007 RMK AO2 SLP189 T02390212 $

More Conditions Fewer Conditions

10-Day Weather Forecast

Almanac

Astronomy

Aug. 29, 2014 Rise Set
Actual Time 6:33 AM EDT 7:38 PM EDT
Civil Twilight 6:07 AM EDT 8:05 PM EDT
Nautical Twilight 5:35 AM EDT 8:36 PM EDT
Astronomical Twilight 5:02 AM EDT 9:09 PM EDT
Moon 10:14 AM EDT 9:41 PM EDT
Length of Visible Light 13h 57m
Length of Day
13h 04m
Tomorrow will be 2m 14s shorter.
Waxing Crescent, 13% of the Moon is Illuminated
Today
Waxing Crescent
Sep 2
First Quarter
Sep 8
Full
Sep 15
Last Quarter
Sep 24
New

Today's Extremes

State Highs State Lows

Community

WunderPhotos

Upload Photos

1,748,197 photos uploaded!

Nearby

Air Quality

  Air Quality AQ Index Pollutant
Yesterday Moderate
PM2.5
Yesterday Good
OZONE
Current Good
OZONE
Current Good
PM2.5
Friday Good
OZONE
Friday Good
PM2.5

Snow Depth

Station Depth Elevation
No new snow has been reported.

Earthquake Activity

City Distance Mag. Time & Date
No recent earthquake activity has been reported nearby.
Minimum magnitude displayed is 2.5.

Coastal Water Temperatures

Place Temperature
No Stations Reporting

Nearby Weather Stations